GQPP

Nouadhibou International Airport

Nouadhibou, Mauritania
METAR GQPP 210400Z 05011KT 7000 NSC 17/09 Q1018 NOSIG
Observed Flight Rules
Jan-21 @ 04:00 UTC (46 minutes ago) Marginal Visual Flight Rules
Wind Visibility Clouds
50° at 11 knots 7,001 meters
  • Clear skies
Temperatures Readings
Current 17°C / 63°F
Dewpoint 9°C / 48°F
Humidity 59%
Altimeter 30.06" Hg
Pressure 1018 hPa
Elevation 3
METAR GQPP 210400Z 05011KT 7000 NSC 17/09 Q1018 NOSIG
Observed Flight Rules
Jan-21 @ 04:00 UTC
(46 minutes ago)
MVFR
Wind Visibility
50° at 11 knots 7,001 meters
Clouds
  • Clear skies
Temperature Dewpoint
17°C / 63°F 9°C / 48°F
Humidity Altimeter Pressure
59% 30.06" Hg 1018 hPa